Terminal Aerodrome Forecast
Issued by NWS

Home | Current Version | Previous Version | Text Only | Print | Product List | Glossary On
Versions: 1 2 3 4 5 6 7 8 9 10 11 12 13 14 15 16 17 18 19 20 21 22 23 24
000
FTUS43 KOAX 231140
TAFBFF
TAF
KBFF 231140Z 2312/2412 12010KT 2SM BR OVC003
      TEMPO 2312/2315 3/4SM BR VV001
     FM231500 13008KT 5SM BR BKN003 OVC007
     FM231800 12015G22KT P6SM VCTS SCT007 BKN015CB
     FM240200 07012KT 3SM -RA BR OVC007=

USA.gov is the U.S. government's official web portal to all federal, state and local government web resources and services.